createdAt,value
2018-12-20T00:05:49.128Z,35.60
2018-12-20T00:08:18.835Z,35.33
2018-12-20T00:10:48.444Z,34.70
2018-12-20T00:13:20.397Z,38.27
2018-12-20T00:15:49.916Z,38.33
2018-12-20T00:18:22.258Z,37.00
2018-12-20T00:21:05.896Z,36.37
2018-12-20T00:23:41.882Z,35.33
2018-12-20T00:39:37.060Z,37.13
2018-12-20T00:42:11.569Z,38.77
2018-12-20T00:44:51.224Z,36.80
2018-12-20T00:47:29.875Z,36.53
2018-12-20T00:50:16.101Z,36.77
2018-12-20T00:52:52.746Z,37.77
2018-12-20T00:55:31.864Z,38.13
2018-12-20T00:58:19.185Z,37.67
2018-12-20T01:14:33.936Z,35.13
2018-12-20T01:17:03.574Z,38.70
2018-12-20T01:19:33.480Z,38.57
2018-12-20T01:22:02.823Z,36.00
2018-12-20T01:24:32.154Z,38.53
2018-12-20T01:27:01.420Z,37.83
2018-12-20T01:29:30.687Z,40.03
2018-12-20T01:31:59.794Z,37.67
2018-12-20T01:34:28.931Z,40.10
2018-12-20T01:36:58.077Z,38.57
2018-12-20T01:39:27.256Z,38.83
2018-12-20T01:41:56.707Z,41.40
2018-12-20T01:44:26.590Z,39.60
2018-12-20T01:46:56.591Z,38.77
2018-12-20T01:49:26.174Z,36.93
2018-12-20T01:51:55.615Z,39.23
2018-12-20T01:54:25.074Z,36.07
2018-12-20T01:56:54.369Z,39.07
2018-12-20T01:59:23.535Z,38.40
2018-12-20T02:01:54.168Z,40.40
2018-12-20T02:04:25.060Z,41.23
2018-12-20T02:06:56.056Z,37.80
2018-12-20T02:09:26.319Z,39.33
2018-12-20T02:11:56.905Z,40.10
2018-12-20T02:14:28.242Z,40.00
2018-12-20T02:16:58.241Z,38.73
2018-12-20T02:19:29.140Z,38.10
2018-12-20T02:21:59.483Z,39.97
2018-12-20T02:24:29.395Z,37.27
2018-12-20T02:26:59.690Z,38.67
2018-12-20T02:29:30.438Z,37.60
2018-12-20T02:32:01.491Z,39.00
2018-12-20T02:34:31.400Z,39.30
2018-12-20T02:37:01.692Z,39.23
2018-12-20T02:39:31.749Z,38.40
2018-12-20T02:42:01.122Z,38.40
2018-12-20T02:44:30.712Z,39.43
2018-12-20T02:47:00.177Z,37.60
2018-12-20T02:49:30.170Z,37.93
2018-12-20T02:52:00.082Z,37.27
2018-12-20T02:54:29.945Z,38.83
2018-12-20T02:57:00.618Z,38.07
2018-12-20T02:59:31.847Z,38.03
2018-12-20T03:02:01.045Z,36.33
2018-12-20T03:04:30.541Z,37.47
2018-12-20T03:07:00.116Z,36.50
2018-12-20T03:09:29.426Z,37.57
2018-12-20T03:11:58.640Z,38.23
2018-12-20T03:14:28.937Z,35.13
2018-12-20T03:16:59.347Z,37.67
2018-12-20T03:19:28.981Z,34.93
2018-12-20T03:21:58.865Z,38.97
2018-12-20T03:24:28.564Z,37.93
2018-12-20T03:26:58.698Z,35.90
2018-12-20T03:29:28.219Z,37.20
2018-12-20T03:31:57.691Z,37.17
2018-12-20T03:34:28.257Z,36.43
2018-12-20T03:36:58.125Z,36.93
2018-12-20T03:39:28.243Z,36.27
2018-12-20T03:41:57.795Z,36.00
2018-12-20T03:44:27.961Z,36.13
2018-12-20T03:46:57.567Z,36.43
2018-12-20T03:49:28.447Z,34.53
2018-12-20T03:51:58.609Z,35.57
2018-12-20T03:54:28.250Z,36.77
2018-12-20T03:56:58.669Z,39.53
2018-12-20T03:59:28.195Z,37.10
2018-12-20T04:01:57.365Z,36.93
2018-12-20T04:04:28.923Z,38.90
2018-12-20T04:07:00.630Z,38.00
2018-12-20T04:09:29.995Z,36.97
2018-12-20T04:12:03.147Z,35.47
2018-12-20T04:14:32.944Z,36.97
2018-12-20T04:17:03.442Z,36.57
2018-12-20T04:19:33.092Z,36.97
2018-12-20T04:22:02.491Z,37.57
2018-12-20T04:24:32.291Z,35.27
2018-12-20T04:27:02.103Z,36.93
2018-12-20T04:29:31.425Z,36.47
2018-12-20T04:32:01.078Z,36.13
2018-12-20T04:34:30.882Z,37.80
2018-12-20T04:37:00.361Z,36.27
2018-12-20T04:39:29.872Z,37.43
2018-12-20T04:41:59.839Z,36.30
2018-12-20T04:44:29.217Z,35.70
2018-12-20T04:46:59.675Z,36.27
2018-12-20T04:49:30.286Z,36.37
2018-12-20T04:51:59.849Z,35.97
2018-12-20T04:54:29.973Z,37.23
2018-12-20T04:56:59.438Z,36.20
2018-12-20T04:59:29.167Z,35.57
2018-12-20T05:01:58.683Z,36.47
2018-12-20T05:04:29.189Z,33.93
2018-12-20T05:06:58.546Z,36.83
2018-12-20T05:09:28.248Z,34.70
2018-12-20T05:11:57.947Z,36.53
2018-12-20T05:14:27.730Z,35.63
2018-12-20T05:16:57.181Z,34.17
2018-12-20T05:19:26.578Z,33.43
2018-12-20T05:21:56.534Z,39.27
2018-12-20T05:24:26.676Z,35.50
2018-12-20T05:26:58.579Z,32.37
2018-12-20T05:30:01.281Z,34.60
2018-12-20T05:32:41.614Z,33.33
2018-12-20T05:35:12.141Z,32.07
2018-12-20T05:37:44.604Z,33.23
2018-12-20T05:40:14.208Z,33.00
2018-12-20T05:42:45.052Z,36.90
2018-12-20T05:45:17.203Z,37.43
2018-12-20T05:47:48.059Z,37.50
2018-12-20T05:50:18.461Z,35.30
2018-12-20T05:52:47.970Z,31.33
2018-12-20T05:55:17.201Z,35.47
2018-12-20T05:57:46.566Z,35.37
2018-12-20T06:00:15.946Z,36.47
2018-12-20T06:02:45.539Z,36.27
2018-12-20T06:05:15.765Z,32.20
2018-12-20T06:07:45.126Z,33.07
2018-12-20T06:10:14.261Z,33.80
2018-12-20T06:12:43.783Z,31.83
2018-12-20T06:15:13.627Z,39.30
2018-12-20T06:17:45.044Z,35.17
2018-12-20T06:20:15.470Z,31.27
2018-12-20T06:22:44.995Z,33.53
2018-12-20T06:25:14.568Z,30.53
2018-12-20T06:27:44.791Z,32.67
2018-12-20T06:30:14.483Z,34.70
2018-12-20T06:32:43.671Z,35.53
2018-12-20T06:35:13.143Z,33.37
2018-12-20T06:37:42.334Z,32.63
2018-12-20T06:40:11.430Z,28.90
2018-12-20T06:42:40.547Z,30.77
2018-12-20T06:45:09.636Z,31.60
2018-12-20T06:47:39.100Z,31.27
2018-12-20T06:50:08.248Z,29.30
2018-12-20T06:52:37.703Z,33.73
2018-12-20T06:55:07.239Z,31.67
2018-12-20T06:57:36.991Z,29.60
2018-12-20T07:00:07.982Z,34.83
2018-12-20T07:02:39.260Z,31.33
2018-12-20T07:05:08.895Z,33.83
2018-12-20T07:07:38.054Z,29.67
2018-12-20T07:10:08.543Z,27.23
2018-12-20T07:12:38.111Z,31.57
2018-12-20T07:15:08.819Z,28.50
2018-12-20T07:17:38.698Z,31.50
2018-12-20T07:20:07.816Z,28.37
2018-12-20T07:22:36.918Z,28.37
2018-12-20T07:25:06.033Z,29.40
2018-12-20T07:27:36.331Z,28.50
2018-12-20T07:30:07.096Z,42.90
2018-12-20T07:32:36.222Z,42.80
2018-12-20T07:35:05.647Z,36.87
2018-12-20T07:37:34.742Z,27.43
2018-12-20T07:40:05.670Z,26.97
2018-12-20T07:42:35.120Z,24.50
2018-12-20T07:45:05.074Z,24.87
2018-12-20T07:47:34.526Z,24.67
2018-12-20T07:50:04.643Z,25.67
2018-12-20T07:52:34.135Z,26.67
2018-12-20T07:55:04.220Z,29.47
2018-12-20T07:57:33.455Z,26.50
2018-12-20T08:00:03.034Z,29.57
2018-12-20T08:02:32.203Z,28.27
2018-12-20T08:05:01.570Z,25.27
2018-12-20T08:07:30.684Z,23.63
2018-12-20T08:09:59.767Z,23.17
2018-12-20T08:12:29.210Z,23.63
2018-12-20T08:14:58.833Z,23.17
2018-12-20T08:17:28.407Z,24.07
2018-12-20T08:19:57.979Z,22.60
2018-12-20T08:22:27.190Z,24.57
2018-12-20T08:25:10.867Z,23.27
2018-12-20T08:27:40.322Z,24.33
2018-12-20T08:30:09.955Z,25.20
2018-12-20T08:32:39.470Z,23.23
2018-12-20T08:35:08.666Z,22.50
2018-12-20T08:37:39.259Z,22.17
2018-12-20T08:40:09.082Z,22.70
2018-12-20T08:42:38.210Z,21.73
2018-12-20T08:45:07.318Z,21.67
2018-12-20T08:47:36.407Z,22.03
2018-12-20T08:50:07.139Z,21.50
2018-12-20T08:52:36.683Z,20.13
2018-12-20T08:55:05.915Z,23.23
2018-12-20T08:57:35.042Z,45.13
2018-12-20T09:00:05.731Z,50.23
2018-12-20T09:02:34.903Z,63.60
2018-12-20T09:05:04.491Z,70.33
2018-12-20T09:07:33.987Z,59.40
2018-12-20T09:10:04.505Z,46.40
2018-12-20T09:12:34.963Z,51.73
2018-12-20T09:15:04.650Z,41.63
2018-12-20T09:17:33.728Z,42.27
2018-12-20T09:20:02.843Z,43.10
2018-12-20T09:22:31.939Z,33.50
2018-12-20T09:25:02.091Z,30.73
2018-12-20T09:27:31.266Z,29.43
2018-12-20T09:30:00.716Z,31.37
2018-12-20T09:32:30.261Z,30.63
2018-12-20T09:34:59.823Z,28.77
2018-12-20T09:37:29.632Z,30.67
2018-12-20T09:39:59.246Z,43.90
2018-12-20T09:42:28.767Z,25.43
2018-12-20T09:44:57.898Z,25.50
2018-12-20T09:47:33.104Z,29.30
2018-12-20T09:50:02.671Z,30.33
2018-12-20T09:52:32.866Z,34.83
2018-12-20T09:55:02.400Z,29.77
2018-12-20T09:57:33.321Z,25.60
2018-12-20T10:00:03.218Z,25.47
2018-12-20T10:02:32.756Z,24.40
2018-12-20T10:05:02.553Z,24.50
2018-12-20T10:07:32.047Z,24.87
2018-12-20T10:10:02.927Z,25.43
2018-12-20T10:12:32.883Z,23.30
2018-12-20T10:15:02.075Z,20.07
2018-12-20T10:17:31.947Z,19.60
2018-12-20T10:20:01.489Z,20.70
2018-12-20T10:22:37.081Z,21.20
2018-12-20T10:25:07.119Z,22.90
2018-12-20T10:27:37.659Z,21.80
2018-12-20T10:30:07.951Z,22.20
2018-12-20T10:32:37.465Z,22.90
2018-12-20T10:35:07.533Z,21.20
2018-12-20T10:37:37.399Z,22.27
2018-12-20T10:40:10.320Z,22.67
2018-12-20T10:42:39.399Z,23.57
2018-12-20T10:45:09.439Z,25.13
2018-12-20T10:47:38.539Z,24.43
2018-12-20T10:50:08.458Z,24.67
2018-12-20T10:52:37.972Z,27.43
2018-12-20T10:55:07.162Z,24.83
2018-12-20T10:57:36.247Z,27.33
2018-12-20T11:00:05.820Z,26.33
2018-12-20T11:03:39.900Z,27.43
2018-12-20T11:06:14.619Z,27.83
2018-12-20T11:08:49.194Z,25.57
2018-12-20T11:11:21.402Z,27.07
2018-12-20T11:13:50.942Z,25.37
2018-12-20T11:16:20.023Z,27.20
2018-12-20T11:18:49.147Z,25.53
2018-12-20T11:21:18.233Z,24.13
2018-12-20T11:23:47.922Z,24.93
2018-12-20T11:26:17.851Z,25.70
2018-12-20T11:28:47.433Z,24.83
2018-12-20T11:31:17.599Z,25.53
2018-12-20T11:33:47.972Z,23.07
2018-12-20T11:36:17.503Z,22.63
2018-12-20T11:38:47.671Z,22.40
2018-12-20T11:41:16.868Z,32.87
2018-12-20T11:43:46.411Z,23.30
2018-12-20T11:46:15.947Z,22.67
2018-12-20T11:48:45.499Z,22.77
2018-12-20T11:51:14.722Z,25.70
2018-12-20T11:53:43.798Z,24.83
2018-12-20T11:56:12.878Z,24.60
2018-12-20T11:58:42.013Z,23.43
2018-12-20T12:01:11.468Z,21.53
2018-12-20T12:03:40.665Z,24.93
2018-12-20T12:06:09.757Z,23.63
2018-12-20T12:08:38.842Z,23.27
2018-12-20T12:11:07.942Z,20.97
2018-12-20T12:13:37.093Z,22.90
2018-12-20T12:16:06.638Z,24.90
2018-12-20T12:18:36.194Z,24.53
2018-12-20T12:21:05.675Z,23.10
2018-12-20T12:23:35.255Z,22.67
2018-12-20T12:26:04.396Z,23.23
2018-12-20T12:28:33.492Z,23.40
2018-12-20T12:31:02.575Z,23.53
2018-12-20T12:33:32.067Z,22.50
2018-12-20T12:36:01.259Z,22.03
2018-12-20T12:38:31.166Z,36.30
2018-12-20T12:41:00.315Z,19.27
2018-12-20T12:43:29.406Z,19.67
2018-12-20T12:45:58.872Z,20.60
2018-12-20T12:48:28.049Z,19.80
2018-12-20T12:50:57.131Z,20.10
2018-12-20T12:53:26.255Z,21.73
2018-12-20T12:55:55.691Z,20.53
2018-12-20T12:58:24.774Z,20.73
2018-12-20T13:00:54.263Z,19.60
2018-12-20T13:03:23.426Z,18.77
2018-12-20T13:05:52.883Z,21.40
2018-12-20T13:08:22.157Z,21.57
2018-12-20T13:10:51.795Z,21.47
2018-12-20T13:13:21.070Z,21.20
2018-12-20T13:15:50.603Z,21.67
2018-12-20T13:18:19.795Z,21.63
2018-12-20T13:20:48.951Z,21.67
2018-12-20T13:23:18.691Z,20.93
2018-12-20T13:25:48.232Z,21.67
2018-12-20T13:28:17.419Z,22.17
2018-12-20T13:30:46.897Z,24.80
2018-12-20T13:33:16.055Z,27.80
2018-12-20T13:35:45.528Z,28.60
2018-12-20T13:38:15.116Z,26.03
2018-12-20T13:40:44.663Z,26.20
2018-12-20T13:43:13.843Z,26.33
2018-12-20T13:45:43.343Z,28.40
2018-12-20T13:48:22.016Z,28.70
2018-12-20T13:50:44.736Z,29.00
2018-12-20T13:53:14.188Z,28.63
2018-12-20T13:55:44.406Z,28.13
2018-12-20T13:58:13.864Z,28.47
2018-12-20T14:00:43.459Z,30.33
2018-12-20T14:03:13.035Z,30.37
2018-12-20T14:05:42.215Z,30.50
2018-12-20T14:08:11.299Z,26.40
2018-12-20T14:10:40.799Z,25.00
2018-12-20T14:13:09.971Z,22.87
2018-12-20T14:15:39.050Z,24.17
2018-12-20T14:18:08.158Z,24.97
2018-12-20T14:20:37.635Z,23.97
2018-12-20T14:23:07.802Z,22.83
2018-12-20T14:25:36.898Z,23.70
2018-12-20T14:28:06.522Z,24.80
2018-12-20T14:30:37.158Z,23.20
2018-12-20T14:33:06.731Z,25.17
2018-12-20T14:35:35.949Z,26.70
2018-12-20T14:38:05.448Z,26.90
2018-12-20T14:40:34.617Z,30.43
2018-12-20T14:43:04.074Z,30.93
2018-12-20T14:45:33.298Z,26.17
2018-12-20T14:48:02.406Z,28.60
2018-12-20T14:50:31.879Z,26.67
2018-12-20T14:53:01.119Z,26.83
2018-12-20T14:55:30.194Z,27.73
2018-12-20T14:57:59.308Z,31.57
2018-12-20T15:00:28.823Z,29.37
2018-12-20T15:02:58.628Z,26.40
2018-12-20T15:05:27.735Z,27.17
2018-12-20T15:07:57.251Z,26.97
2018-12-20T15:10:26.426Z,27.30
2018-12-20T15:12:55.895Z,27.00
2018-12-20T15:15:25.110Z,28.27
2018-12-20T15:17:54.194Z,26.37
2018-12-20T15:20:23.978Z,30.87
2018-12-20T15:22:53.540Z,34.87
2018-12-20T15:25:22.699Z,41.20
2018-12-20T15:27:52.148Z,42.53
2018-12-20T15:30:21.692Z,42.97
2018-12-20T15:32:51.271Z,41.47
2018-12-20T15:35:20.414Z,32.93
2018-12-20T15:37:49.884Z,43.20
2018-12-20T15:40:19.439Z,36.77
2018-12-20T15:42:49.015Z,31.13
2018-12-20T15:45:18.871Z,30.03
2018-12-20T15:47:48.424Z,31.57
2018-12-20T15:50:17.951Z,34.20
2018-12-20T15:52:47.120Z,32.30
2018-12-20T15:55:16.180Z,31.93
2018-12-20T15:57:45.621Z,29.83
2018-12-20T16:00:15.127Z,29.80
2018-12-20T16:02:44.643Z,37.00
2018-12-20T16:05:14.206Z,47.50
2018-12-20T16:07:43.739Z,59.10
2018-12-20T16:10:13.267Z,77.43
2018-12-20T16:12:43.147Z,80.80
2018-12-20T16:15:12.691Z,68.40
2018-12-20T16:17:42.199Z,50.87
2018-12-20T16:20:11.730Z,44.40
2018-12-20T16:22:41.283Z,38.10
2018-12-20T16:25:10.799Z,43.30
2018-12-20T16:27:40.412Z,36.97
2018-12-20T16:30:11.564Z,37.43
2018-12-20T16:32:41.478Z,42.77
2018-12-20T16:35:11.024Z,43.77
2018-12-20T16:37:40.603Z,46.87
2018-12-20T16:40:10.193Z,40.53
2018-12-20T16:42:39.678Z,47.70
2018-12-20T16:45:09.220Z,58.97
2018-12-20T16:47:38.727Z,62.77
2018-12-20T16:50:10.048Z,56.63
2018-12-20T16:52:39.558Z,54.17
2018-12-20T16:55:09.996Z,46.33
2018-12-20T16:57:39.515Z,52.40
2018-12-20T17:00:11.826Z,80.33
2018-12-20T17:02:41.374Z,63.07
2018-12-20T17:05:10.923Z,56.20
2018-12-20T17:07:40.439Z,50.10
2018-12-20T17:10:09.974Z,58.33
2018-12-20T17:12:39.495Z,54.90
2018-12-20T17:15:09.059Z,52.03
2018-12-20T17:17:38.214Z,47.87
2018-12-20T17:20:08.733Z,47.60
2018-12-20T17:22:38.278Z,46.43
2018-12-20T17:25:07.874Z,46.87
2018-12-20T17:27:37.378Z,47.70
2018-12-20T17:30:08.994Z,47.23
2018-12-20T17:32:38.506Z,47.70
2018-12-20T17:35:08.022Z,44.93
2018-12-20T17:37:37.575Z,55.27
2018-12-20T17:40:07.987Z,51.17
2018-12-20T17:42:37.567Z,50.37
2018-12-20T17:45:08.379Z,48.57
2018-12-20T17:47:38.315Z,47.70
2018-12-20T17:50:09.754Z,53.70
2018-12-20T17:52:39.302Z,60.10
2018-12-20T17:55:08.841Z,53.23
2018-12-20T17:57:38.391Z,48.37
2018-12-20T18:00:11.243Z,46.40
2018-12-20T18:02:40.782Z,51.23
2018-12-20T18:05:10.318Z,44.77
2018-12-20T18:07:39.842Z,58.03
2018-12-20T18:10:11.395Z,43.20
2018-12-20T18:12:40.935Z,44.03
2018-12-20T18:15:12.266Z,42.60
2018-12-20T18:17:41.830Z,46.43
2018-12-20T18:20:11.520Z,43.50
2018-12-20T18:22:41.014Z,42.83
2018-12-20T18:25:10.602Z,48.33
2018-12-20T18:27:40.579Z,46.30
2018-12-20T18:30:12.006Z,43.33
2018-12-20T18:32:41.512Z,43.17
2018-12-20T18:35:11.040Z,44.50
2018-12-20T18:37:40.587Z,43.13
2018-12-20T18:40:10.438Z,44.80
2018-12-20T18:42:39.982Z,47.67
2018-12-20T18:45:09.790Z,44.90
2018-12-20T18:47:39.338Z,52.03
2018-12-20T18:50:10.362Z,48.30
2018-12-20T18:52:40.343Z,50.70
2018-12-20T18:55:09.866Z,49.30
2018-12-20T18:57:39.418Z,50.07
2018-12-20T19:00:10.195Z,50.33
2018-12-20T19:02:39.882Z,50.87
2018-12-20T19:05:09.447Z,48.47
2018-12-20T19:07:38.963Z,50.23
2018-12-20T19:10:09.028Z,58.70
2018-12-20T19:12:38.591Z,52.67
2018-12-20T19:15:09.728Z,56.47
2018-12-20T19:17:39.282Z,53.60
2018-12-20T19:20:16.007Z,56.70
2018-12-20T19:22:41.819Z,48.37
2018-12-20T19:25:11.395Z,50.00
2018-12-20T19:27:41.872Z,50.37
2018-12-20T19:30:11.811Z,50.37
2018-12-20T19:32:41.683Z,50.20
2018-12-20T19:35:12.595Z,62.97
2018-12-20T19:37:42.030Z,73.03
2018-12-20T19:40:11.874Z,53.27
2018-12-20T19:42:42.715Z,59.13
2018-12-20T19:45:13.826Z,60.60
2018-12-20T19:47:43.414Z,56.33
2018-12-20T19:50:13.983Z,59.33
2018-12-20T19:52:45.258Z,53.77
2018-12-20T19:55:16.031Z,57.33
2018-12-20T19:57:46.213Z,48.90
2018-12-20T20:00:17.854Z,48.57
2018-12-20T20:02:47.068Z,59.53
2018-12-20T20:05:16.967Z,71.10
2018-12-20T20:07:47.478Z,63.50
2018-12-20T20:10:17.787Z,59.13
2018-12-20T20:12:48.496Z,53.47
2018-12-20T20:15:18.835Z,53.40
2018-12-20T20:17:48.503Z,51.13
2018-12-20T20:20:18.049Z,50.33
2018-12-20T20:22:47.614Z,50.90
2018-12-20T20:25:17.335Z,52.13
2018-12-20T20:27:50.250Z,53.13
2018-12-20T20:30:20.850Z,48.60
2018-12-20T20:32:51.641Z,54.43
2018-12-20T20:35:21.150Z,51.07
2018-12-20T20:37:51.839Z,45.60
2018-12-20T20:40:20.986Z,48.97
2018-12-20T20:42:51.378Z,51.17
2018-12-20T20:45:21.758Z,51.07
2018-12-20T20:47:51.833Z,52.43
2018-12-20T20:50:22.770Z,47.63
2018-12-20T20:52:52.764Z,52.27
2018-12-20T20:55:22.299Z,50.63
2018-12-20T20:57:51.792Z,53.40
2018-12-20T21:00:22.198Z,55.57
2018-12-20T21:02:55.067Z,50.30
2018-12-20T21:05:25.574Z,53.20
2018-12-20T21:07:57.246Z,50.17
2018-12-20T21:10:27.083Z,55.60
2018-12-20T21:12:57.706Z,49.03
2018-12-20T21:15:27.602Z,51.07
2018-12-20T21:17:58.898Z,48.10
2018-12-20T21:20:30.736Z,48.97
2018-12-20T21:23:00.275Z,45.13
2018-12-20T21:25:30.635Z,47.63
2018-12-20T21:28:00.438Z,49.87
2018-12-20T21:30:31.031Z,48.57
2018-12-20T21:33:00.834Z,47.73
2018-12-20T21:35:31.242Z,43.60
2018-12-20T21:38:01.511Z,43.07
2018-12-20T21:40:31.201Z,41.90
2018-12-20T21:43:01.364Z,44.20
2018-12-20T21:45:31.643Z,45.03
2018-12-20T21:48:01.283Z,42.03
2018-12-20T21:50:38.805Z,41.80
2018-12-20T21:53:02.330Z,46.70
2018-12-20T21:55:32.542Z,48.43
2018-12-20T21:58:02.199Z,47.67
2018-12-20T22:00:31.330Z,50.27
2018-12-20T22:03:02.002Z,46.60
2018-12-20T22:05:33.490Z,40.10
2018-12-20T22:08:03.040Z,40.33
2018-12-20T22:10:32.547Z,42.67
2018-12-20T22:13:02.074Z,48.63
2018-12-20T22:15:31.265Z,44.17
2018-12-20T22:18:01.366Z,40.60
2018-12-20T22:20:30.942Z,40.47
2018-12-20T22:23:00.462Z,41.93
2018-12-20T22:25:36.067Z,37.73
2018-12-20T22:28:05.583Z,37.83
2018-12-20T22:30:35.087Z,42.63
2018-12-20T22:33:04.687Z,38.73
2018-12-20T22:35:34.228Z,38.50
2018-12-20T22:38:04.263Z,40.30
2018-12-20T22:40:33.847Z,38.93
2018-12-20T22:43:02.994Z,37.40
2018-12-20T22:45:32.085Z,36.77
2018-12-20T22:48:01.192Z,37.60
2018-12-20T22:50:31.055Z,34.57
2018-12-20T22:53:00.558Z,37.57
2018-12-20T22:55:30.087Z,35.57
2018-12-20T22:57:59.575Z,38.20
2018-12-20T23:00:29.099Z,37.90
2018-12-20T23:02:58.590Z,36.03
2018-12-20T23:05:28.102Z,34.43
2018-12-20T23:07:57.620Z,35.50
2018-12-20T23:10:27.203Z,34.00
2018-12-20T23:12:56.886Z,33.07
2018-12-20T23:15:26.427Z,35.43
2018-12-20T23:17:56.015Z,33.23
2018-12-20T23:20:25.509Z,32.80
2018-12-20T23:22:55.060Z,34.23
2018-12-20T23:25:24.565Z,36.10
2018-12-20T23:27:54.051Z,41.57
2018-12-20T23:30:23.576Z,38.50
2018-12-20T23:32:53.063Z,35.57
2018-12-20T23:35:22.619Z,37.13
2018-12-20T23:37:52.119Z,39.80
2018-12-20T23:40:21.630Z,33.93
2018-12-20T23:42:51.154Z,33.97
2018-12-20T23:45:20.642Z,34.63
2018-12-20T23:47:50.131Z,33.47
2018-12-20T23:50:19.678Z,35.03
2018-12-20T23:52:49.175Z,33.23
2018-12-20T23:55:18.678Z,33.77
2018-12-20T23:57:48.174Z,33.60
